Time,TemperatureF,DewpointF,PressureIn,WindDirection,WindDirectionDegrees,WindSpeedMPH,WindSpeedGustMPH,Humidity,HourlyPrecipIn,Conditions,Clouds,dailyrainin,SoftwareType,DateUTC
2013-05-08 00:12:00,59.0,57.0,-100.00,NNE,13,0.0,0.0,92,0.00,,,0.00,,2013-05-08 05:12:00,
2013-05-08 00:22:00,59.0,57.0,-100.00,NNE,13,0.0,0.0,92,0.00,,,0.00,,2013-05-08 05:22:00,
2013-05-08 00:32:00,59.0,57.0,-100.00,NNE,13,0.0,0.0,92,0.00,,,0.00,,2013-05-08 05:32:00,
2013-05-08 00:42:00,59.0,57.0,-100.00,NNE,13,0.0,0.0,92,0.00,,,0.00,,2013-05-08 05:42:00,
2013-05-08 01:12:00,57.0,55.0,-100.00,SE,139,0.0,0.0,94,0.00,,,0.00,,2013-05-08 06:12:00,
2013-05-08 01:21:00,57.0,55.0,-100.00,SE,139,0.0,0.0,94,0.00,,,0.00,,2013-05-08 06:21:00,
2013-05-08 01:32:00,57.0,55.0,-100.00,SE,139,0.0,0.0,94,0.00,,,0.00,,2013-05-08 06:32:00,
2013-05-08 01:42:00,57.0,55.0,-100.00,SE,139,0.0,0.0,94,0.00,,,0.00,,2013-05-08 06:42:00,
2013-05-08 02:11:00,56.0,55.0,-100.00,WNW,302,0.0,0.0,95,0.00,,,0.00,,2013-05-08 07:11:00,
2013-05-08 02:21:00,56.0,55.0,-100.00,WNW,302,0.0,0.0,95,0.00,,,0.00,,2013-05-08 07:21:00,
2013-05-08 02:32:00,56.0,55.0,-100.00,WNW,302,0.0,0.0,95,0.00,,,0.00,,2013-05-08 07:32:00,
2013-05-08 02:42:00,56.0,55.0,-100.00,WNW,302,0.0,0.0,95,0.00,,,0.00,,2013-05-08 07:42:00,
2013-05-08 03:12:00,55.0,54.0,-100.00,SE,146,0.0,0.0,96,0.00,,,0.00,,2013-05-08 08:12:00,
2013-05-08 03:21:00,55.0,54.0,-100.00,SE,146,0.0,0.0,96,0.00,,,0.00,,2013-05-08 08:21:00,
2013-05-08 03:32:00,55.0,54.0,-100.00,SE,146,0.0,0.0,96,0.00,,,0.00,,2013-05-08 08:32:00,
2013-05-08 03:42:00,55.0,54.0,-100.00,SE,146,0.0,0.0,96,0.00,,,0.00,,2013-05-08 08:42:00,
2013-05-08 04:11:00,55.0,54.0,-100.00,SE,127,0.0,0.0,96,0.00,,,0.00,,2013-05-08 09:11:00,
2013-05-08 04:21:00,55.0,54.0,-100.00,SE,127,0.0,0.0,96,0.00,,,0.00,,2013-05-08 09:21:00,
2013-05-08 04:32:00,55.0,54.0,-100.00,SE,127,0.0,0.0,96,0.00,,,0.00,,2013-05-08 09:32:00,
2013-05-08 04:42:00,55.0,54.0,-100.00,SE,127,0.0,0.0,96,0.00,,,0.00,,2013-05-08 09:42:00,
2013-05-08 05:12:00,54.0,53.0,-100.00,ENE,71,0.0,0.0,96,0.00,,,0.00,,2013-05-08 10:12:00,
2013-05-08 05:22:00,54.0,53.0,-100.00,ENE,71,0.0,0.0,96,0.00,,,0.00,,2013-05-08 10:22:00,
2013-05-08 05:33:00,54.0,53.0,-100.00,ENE,71,0.0,0.0,96,0.00,,,0.00,,2013-05-08 10:33:00,
2013-05-08 05:42:00,54.0,53.0,-100.00,ENE,71,0.0,0.0,96,0.00,,,0.00,,2013-05-08 10:42:00,
2013-05-08 06:11:00,54.0,53.0,-100.00,SE,130,0.0,0.0,96,0.00,,,0.00,,2013-05-08 11:11:00,
2013-05-08 06:22:00,54.0,53.0,-100.00,SE,130,0.0,0.0,96,0.00,,,0.00,,2013-05-08 11:22:00,
2013-05-08 06:32:00,54.0,53.0,-100.00,SE,130,0.0,0.0,96,0.00,,,0.00,,2013-05-08 11:32:00,
2013-05-08 06:42:00,54.0,53.0,-100.00,SE,130,0.0,0.0,96,0.00,,,0.00,,2013-05-08 11:42:00,
2013-05-08 07:11:00,53.0,52.0,-100.00,SE,143,0.0,0.0,97,0.00,,,0.00,,2013-05-08 12:11:00,
2013-05-08 07:21:00,53.0,52.0,-100.00,SE,143,0.0,0.0,97,0.00,,,0.00,,2013-05-08 12:21:00,
2013-05-08 07:32:00,53.0,52.0,-100.00,SE,143,0.0,0.0,97,0.00,,,0.00,,2013-05-08 12:32:00,
2013-05-08 07:41:00,53.0,52.0,-100.00,SE,143,0.0,0.0,97,0.00,,,0.00,,2013-05-08 12:41:00,
2013-05-08 08:11:00,61.0,59.0,-100.00,West,268,0.0,1.0,94,0.00,,,0.00,,2013-05-08 13:11:00,
2013-05-08 08:21:00,61.0,59.0,-100.00,West,268,0.0,1.0,94,0.00,,,0.00,,2013-05-08 13:21:00,
2013-05-08 08:32:00,61.0,59.0,-100.00,West,268,0.0,1.0,94,0.00,,,0.00,,2013-05-08 13:32:00,
2013-05-08 08:42:00,61.0,59.0,-100.00,West,268,0.0,1.0,94,0.00,,,0.00,,2013-05-08 13:42:00,
2013-05-08 09:11:00,69.0,63.0,-100.00,WSW,257,4.0,7.0,80,0.00,,,0.00,,2013-05-08 14:11:00,
2013-05-08 09:21:00,69.0,63.0,-100.00,WSW,257,4.0,7.0,80,0.00,,,0.00,,2013-05-08 14:21:00,
2013-05-08 09:32:00,69.0,63.0,-100.00,WSW,257,4.0,7.0,80,0.00,,,0.00,,2013-05-08 14:32:00,
2013-05-08 09:42:00,69.0,63.0,-100.00,WSW,257,4.0,7.0,80,0.00,,,0.00,,2013-05-08 14:42:00,
2013-05-08 10:11:00,74.0,61.0,-100.00,SW,224,5.0,9.0,64,0.00,,,0.00,,2013-05-08 15:11:00,
2013-05-08 10:21:00,74.0,61.0,-100.00,SW,224,5.0,9.0,64,0.00,,,0.00,,2013-05-08 15:21:00,
2013-05-08 10:33:00,74.0,61.0,-100.00,SW,224,5.0,9.0,64,0.00,,,0.00,,2013-05-08 15:33:00,
2013-05-08 10:42:00,74.0,61.0,-100.00,SW,224,5.0,9.0,64,0.00,,,0.00,,2013-05-08 15:42:00,
2013-05-08 11:12:00,78.0,61.0,-100.00,WSW,241,6.0,10.0,55,0.00,,,-99.99,,2013-05-08 16:12:00,
2013-05-08 11:23:00,78.0,61.0,-100.00,WSW,241,6.0,10.0,55,0.00,,,-99.99,,2013-05-08 16:23:00,
2013-05-08 11:33:00,78.0,61.0,-100.00,WSW,241,6.0,10.0,55,0.00,,,-99.99,,2013-05-08 16:33:00,
2013-05-08 11:42:00,78.0,61.0,-100.00,WSW,241,6.0,10.0,55,0.00,,,-99.99,,2013-05-08 16:42:00,
2013-05-08 12:12:00,80.0,59.0,-100.00,South,170,7.0,12.0,48,0.00,,,-99.99,,2013-05-08 17:12:00,
2013-05-08 12:22:00,80.0,59.0,-100.00,South,170,7.0,12.0,48,0.00,,,-99.99,,2013-05-08 17:22:00,
2013-05-08 12:32:00,80.0,59.0,-100.00,South,170,7.0,12.0,48,0.00,,,-99.99,,2013-05-08 17:32:00,
2013-05-08 12:41:00,80.0,59.0,-100.00,South,170,7.0,12.0,48,0.00,,,-99.99,,2013-05-08 17:41:00,
2013-05-08 13:12:00,81.0,59.0,-100.00,South,182,7.0,13.0,47,0.00,,,-99.99,,2013-05-08 18:12:00,
2013-05-08 13:21:00,81.0,59.0,-100.00,South,182,7.0,13.0,47,0.00,,,-99.99,,2013-05-08 18:21:00,
2013-05-08 13:32:00,81.0,59.0,-100.00,South,182,7.0,13.0,47,0.00,,,-99.99,,2013-05-08 18:32:00,
2013-05-08 13:42:00,81.0,59.0,-100.00,South,182,7.0,13.0,47,0.00,,,-99.99,,2013-05-08 18:42:00,
2013-05-08 14:11:00,82.0,59.0,-100.00,SSW,201,7.0,11.0,46,0.00,,,0.00,,2013-05-08 19:11:00,
2013-05-08 14:22:00,82.0,59.0,-100.00,SSW,201,7.0,11.0,46,0.00,,,0.00,,2013-05-08 19:22:00,
2013-05-08 14:32:00,82.0,59.0,-100.00,SSW,201,7.0,11.0,46,0.00,,,0.00,,2013-05-08 19:32:00,
2013-05-08 14:42:00,82.0,59.0,-100.00,SSW,201,7.0,11.0,46,0.00,,,0.00,,2013-05-08 19:42:00,
2013-05-08 15:11:00,83.0,58.0,-100.00,SSW,204,9.0,14.0,42,0.00,,,0.00,,2013-05-08 20:11:00,
2013-05-08 15:22:00,83.0,58.0,-100.00,SSW,204,9.0,14.0,42,0.00,,,0.00,,2013-05-08 20:22:00,
2013-05-08 15:32:00,83.0,58.0,-100.00,SSW,204,9.0,14.0,42,0.00,,,0.00,,2013-05-08 20:32:00,
2013-05-08 15:42:00,83.0,58.0,-100.00,SSW,204,9.0,14.0,42,0.00,,,0.00,,2013-05-08 20:42:00,
2013-05-08 16:12:00,84.0,59.0,-100.00,South,189,7.0,13.0,43,0.00,,,0.00,,2013-05-08 21:12:00,
2013-05-08 16:21:00,84.0,59.0,-100.00,South,189,7.0,13.0,43,0.00,,,0.00,,2013-05-08 21:21:00,
2013-05-08 16:33:00,84.0,59.0,-100.00,South,189,7.0,13.0,43,0.00,,,0.00,,2013-05-08 21:33:00,
2013-05-08 16:43:00,84.0,59.0,-100.00,South,189,7.0,13.0,43,0.00,,,0.00,,2013-05-08 21:43:00,
2013-05-08 17:12:00,83.0,59.0,-100.00,South,186,7.0,12.0,45,0.00,,,0.00,,2013-05-08 22:12:00,
2013-05-08 17:22:00,83.0,59.0,-100.00,South,186,7.0,12.0,45,0.00,,,0.00,,2013-05-08 22:22:00,
2013-05-08 17:33:00,83.0,59.0,-100.00,South,186,7.0,12.0,45,0.00,,,0.00,,2013-05-08 22:33:00,
2013-05-08 17:42:00,83.0,59.0,-100.00,South,186,7.0,12.0,45,0.00,,,0.00,,2013-05-08 22:42:00,
2013-05-08 18:11:00,81.0,61.0,-100.00,SSW,212,9.0,15.0,50,0.00,,,0.00,,2013-05-08 23:11:00,
2013-05-08 18:22:00,81.0,61.0,-100.00,SSW,212,9.0,15.0,50,0.00,,,0.00,,2013-05-08 23:22:00,
2013-05-08 18:32:00,81.0,61.0,-100.00,SSW,212,9.0,15.0,50,0.00,,,0.00,,2013-05-08 23:32:00,
2013-05-08 18:42:00,81.0,61.0,-100.00,SSW,212,9.0,15.0,50,0.00,,,0.00,,2013-05-08 23:42:00,
2013-05-08 19:12:00,79.0,60.0,-100.00,SSW,198,7.0,11.0,53,0.00,,,0.00,,2013-05-09 00:12:00,
2013-05-08 19:21:00,79.0,60.0,-100.00,SSW,198,7.0,11.0,53,0.00,,,0.00,,2013-05-09 00:21:00,
2013-05-08 19:32:00,79.0,60.0,-100.00,SSW,198,7.0,11.0,53,0.00,,,0.00,,2013-05-09 00:32:00,
2013-05-08 19:42:00,79.0,60.0,-100.00,SSW,198,7.0,11.0,53,0.00,,,0.00,,2013-05-09 00:42:00,
2013-05-08 20:11:00,75.0,59.0,-100.00,South,184,4.0,8.0,57,0.00,,,0.00,,2013-05-09 01:11:00,
2013-05-08 20:22:00,75.0,59.0,-100.00,South,184,4.0,8.0,57,0.00,,,0.00,,2013-05-09 01:22:00,
2013-05-08 20:32:00,75.0,59.0,-100.00,South,184,4.0,8.0,57,0.00,,,0.00,,2013-05-09 01:32:00,
2013-05-08 20:42:00,75.0,59.0,-100.00,South,184,4.0,8.0,57,0.00,,,0.00,,2013-05-09 01:42:00,
2013-05-08 21:11:00,69.0,59.0,-100.00,SSE,157,2.0,2.0,70,0.00,,,0.00,,2013-05-09 02:11:00,
2013-05-08 21:22:00,69.0,59.0,-100.00,SSE,157,2.0,2.0,70,0.00,,,0.00,,2013-05-09 02:22:00,
2013-05-08 21:32:00,69.0,59.0,-100.00,SSE,157,2.0,2.0,70,0.00,,,0.00,,2013-05-09 02:32:00,
2013-05-08 21:41:00,69.0,59.0,-100.00,SSE,157,2.0,2.0,70,0.00,,,0.00,,2013-05-09 02:41:00,
2013-05-08 22:11:00,67.0,58.0,-100.00,South,178,3.0,4.0,72,0.00,,,0.00,,2013-05-09 03:11:00,
2013-05-08 22:21:00,67.0,58.0,-100.00,South,178,3.0,4.0,72,0.00,,,0.00,,2013-05-09 03:21:00,
2013-05-08 22:33:00,67.0,58.0,-100.00,South,178,3.0,4.0,72,0.00,,,0.00,,2013-05-09 03:33:00,
2013-05-08 22:43:00,67.0,58.0,-100.00,South,178,3.0,4.0,72,0.00,,,0.00,,2013-05-09 03:43:00,
2013-05-08 23:12:00,67.0,58.0,-100.00,South,179,4.0,7.0,73,0.00,,,0.00,,2013-05-09 04:12:00,
2013-05-08 23:23:00,67.0,58.0,-100.00,South,179,4.0,7.0,73,0.00,,,0.00,,2013-05-09 04:23:00,
2013-05-08 23:33:00,67.0,58.0,-100.00,South,179,4.0,7.0,73,0.00,,,0.00,,2013-05-09 04:33:00,
2013-05-08 23:43:00,67.0,58.0,-100.00,South,179,4.0,7.0,73,0.00,,,0.00,,2013-05-09 04:43:00,